createdAt,value
2018-07-27T00:00:14.374Z,26.10
2018-07-27T00:02:43.221Z,26.10
2018-07-27T00:05:12.072Z,26.10
2018-07-27T00:07:40.914Z,26.20
2018-07-27T00:10:09.760Z,26.10
2018-07-27T00:12:38.591Z,26.10
2018-07-27T00:15:07.440Z,26.10
2018-07-27T00:17:36.272Z,26.10
2018-07-27T00:20:05.113Z,26.00
2018-07-27T00:22:33.957Z,25.90
2018-07-27T00:25:02.802Z,25.90
2018-07-27T00:27:31.671Z,25.90
2018-07-27T00:30:00.515Z,25.90
2018-07-27T00:32:29.363Z,25.90
2018-07-27T00:34:58.222Z,25.90
2018-07-27T00:37:27.068Z,25.90
2018-07-27T00:39:56.650Z,25.60
2018-07-27T00:42:25.497Z,25.50
2018-07-27T00:44:54.331Z,25.50
2018-07-27T00:47:23.171Z,25.40
2018-07-27T00:49:52.003Z,25.00
2018-07-27T00:52:20.844Z,25.10
2018-07-27T00:54:49.677Z,24.90
2018-07-27T00:57:18.518Z,25.00
2018-07-27T00:59:47.363Z,25.10
2018-07-27T01:02:16.193Z,25.10
2018-07-27T01:04:45.050Z,25.10
2018-07-27T01:07:13.896Z,25.10
2018-07-27T01:09:42.734Z,25.00
2018-07-27T01:12:11.573Z,25.00
2018-07-27T01:14:40.423Z,24.90
2018-07-27T01:17:09.280Z,25.00
2018-07-27T01:19:38.121Z,24.90
2018-07-27T01:22:06.974Z,24.90
2018-07-27T01:24:35.806Z,24.90
2018-07-27T01:27:04.644Z,24.80
2018-07-27T01:29:33.474Z,24.90
2018-07-27T01:32:02.315Z,25.00
2018-07-27T01:34:31.150Z,25.00
2018-07-27T01:36:59.991Z,24.90
2018-07-27T01:39:28.821Z,24.90
2018-07-27T01:41:58.394Z,25.00
2018-07-27T01:44:27.225Z,25.00
2018-07-27T01:46:56.810Z,24.90
2018-07-27T01:49:25.646Z,24.80
2018-07-27T01:51:54.489Z,24.80
2018-07-27T01:54:23.342Z,24.80
2018-07-27T01:56:52.182Z,24.80
2018-07-27T01:59:21.019Z,24.80
2018-07-27T02:01:49.872Z,24.60
2018-07-27T02:04:18.721Z,24.60
2018-07-27T02:06:47.557Z,24.60
2018-07-27T02:09:16.398Z,24.60
2018-07-27T02:11:45.230Z,24.60
2018-07-27T02:14:14.062Z,24.60
2018-07-27T02:16:42.893Z,24.60
2018-07-27T02:19:11.739Z,24.60
2018-07-27T02:21:40.594Z,24.50
2018-07-27T02:24:09.433Z,24.50
2018-07-27T02:26:38.309Z,24.50
2018-07-27T02:29:07.110Z,24.30
2018-07-27T02:31:35.954Z,24.30
2018-07-27T02:34:04.789Z,24.30
2018-07-27T02:36:33.623Z,24.30
2018-07-27T02:39:02.465Z,24.10
2018-07-27T02:41:31.319Z,24.20
2018-07-27T02:44:00.161Z,24.20
2018-07-27T02:46:29.016Z,24.30
2018-07-27T02:48:57.857Z,24.20
2018-07-27T02:51:27.482Z,24.00
2018-07-27T02:53:56.273Z,24.00
2018-07-27T02:56:25.115Z,23.90
2018-07-27T02:58:53.952Z,23.60
2018-07-27T03:01:22.798Z,23.60
2018-07-27T03:03:51.637Z,23.50
2018-07-27T03:06:20.480Z,23.30
2018-07-27T03:08:49.314Z,23.40
2018-07-27T03:11:18.174Z,23.50
2018-07-27T03:13:47.010Z,23.30
2018-07-27T03:16:15.859Z,23.40
2018-07-27T03:18:44.696Z,23.40
2018-07-27T03:21:13.530Z,23.40
2018-07-27T03:23:42.373Z,23.40
2018-07-27T03:26:11.211Z,23.40
2018-07-27T03:28:40.055Z,23.50
2018-07-27T03:31:08.891Z,23.60
2018-07-27T03:33:37.734Z,23.60
2018-07-27T03:36:06.581Z,23.40
2018-07-27T03:38:35.422Z,23.30
2018-07-27T03:41:04.258Z,23.50
2018-07-27T03:43:33.088Z,23.40
2018-07-27T03:46:01.930Z,23.40
2018-07-27T03:48:30.776Z,23.50
2018-07-27T03:50:59.607Z,23.40
2018-07-27T03:53:28.446Z,23.40
2018-07-27T03:55:58.061Z,23.40
2018-07-27T03:58:26.899Z,23.30
2018-07-27T04:00:55.737Z,23.30
2018-07-27T04:03:24.586Z,23.30
2018-07-27T04:05:53.434Z,23.30
2018-07-27T04:08:22.281Z,23.30
2018-07-27T04:10:51.858Z,23.20
2018-07-27T04:13:20.697Z,23.30
2018-07-27T04:15:49.541Z,22.80
2018-07-27T04:18:18.375Z,22.80
2018-07-27T04:20:47.219Z,23.00
2018-07-27T04:23:16.055Z,23.10
2018-07-27T04:25:44.889Z,23.10
2018-07-27T04:28:13.728Z,23.00
2018-07-27T04:30:42.569Z,22.80
2018-07-27T04:33:11.425Z,22.60
2018-07-27T04:35:40.307Z,22.90
2018-07-27T04:38:09.110Z,22.80
2018-07-27T04:40:37.944Z,22.90
2018-07-27T04:43:06.777Z,22.80
2018-07-27T04:45:35.620Z,22.90
2018-07-27T04:48:04.459Z,22.80
2018-07-27T04:50:33.299Z,22.80
2018-07-27T04:53:02.139Z,22.90
2018-07-27T04:55:30.976Z,22.60
2018-07-27T04:57:59.806Z,22.50
2018-07-27T05:00:28.677Z,22.50
2018-07-27T05:02:57.708Z,22.60
2018-07-27T05:05:26.551Z,22.60
2018-07-27T05:07:55.411Z,22.70
2018-07-27T05:10:24.266Z,22.60
2018-07-27T05:12:53.133Z,22.60
2018-07-27T05:15:21.994Z,22.60
2018-07-27T05:17:50.846Z,22.80
2018-07-27T05:20:19.702Z,22.80
2018-07-27T05:22:48.561Z,22.80
2018-07-27T05:25:17.387Z,22.90
2018-07-27T05:27:46.231Z,23.00
2018-07-27T05:30:15.069Z,23.00
2018-07-27T05:32:43.900Z,23.10
2018-07-27T05:35:12.753Z,23.10
2018-07-27T05:37:41.609Z,23.10
2018-07-27T05:40:10.450Z,23.10
2018-07-27T05:42:39.298Z,23.10
2018-07-27T05:45:08.888Z,23.20
2018-07-27T05:47:37.729Z,23.40
2018-07-27T05:50:06.582Z,23.40
2018-07-27T05:52:36.174Z,23.60
2018-07-27T05:55:05.011Z,23.50
2018-07-27T05:57:33.846Z,23.60
2018-07-27T06:00:02.683Z,23.60
2018-07-27T06:02:31.536Z,23.60
2018-07-27T06:05:00.374Z,23.60
2018-07-27T06:07:29.224Z,23.70
2018-07-27T06:09:58.058Z,23.80
2018-07-27T06:12:26.919Z,23.70
2018-07-27T06:14:56.512Z,23.70
2018-07-27T06:17:25.356Z,23.80
2018-07-27T06:19:54.196Z,23.90
2018-07-27T06:22:23.051Z,23.80
2018-07-27T06:24:51.884Z,23.90
2018-07-27T06:27:21.471Z,23.90
2018-07-27T06:29:50.341Z,23.90
2018-07-27T06:32:19.168Z,24.00
2018-07-27T06:34:48.733Z,24.10
2018-07-27T06:37:17.580Z,24.30
2018-07-27T06:39:46.421Z,24.30
2018-07-27T06:42:15.295Z,24.30
2018-07-27T06:44:44.139Z,24.40
2018-07-27T06:47:13.003Z,24.40
2018-07-27T06:49:41.853Z,24.50
2018-07-27T06:52:10.686Z,24.50
2018-07-27T06:54:39.542Z,24.50
2018-07-27T06:57:08.362Z,24.70
2018-07-27T06:59:37.210Z,24.70
2018-07-27T07:02:06.037Z,24.80
2018-07-27T07:04:35.621Z,24.80
2018-07-27T07:07:04.464Z,24.90
2018-07-27T07:09:33.293Z,25.00
2018-07-27T07:12:02.140Z,25.10
2018-07-27T07:14:31.722Z,25.20
2018-07-27T07:17:00.541Z,25.30
2018-07-27T07:19:29.396Z,25.40
2018-07-27T07:21:58.256Z,25.50
2018-07-27T07:24:27.091Z,25.70
2018-07-27T07:26:55.930Z,25.60
2018-07-27T07:29:24.772Z,25.70
2018-07-27T07:31:53.612Z,25.70
2018-07-27T07:34:22.454Z,25.80
2018-07-27T07:36:51.293Z,25.90
2018-07-27T07:39:20.128Z,26.00
2018-07-27T07:41:48.971Z,26.10
2018-07-27T07:44:17.805Z,26.20
2018-07-27T07:46:46.649Z,26.20
2018-07-27T07:49:15.503Z,26.30
2018-07-27T07:51:44.337Z,26.40
2018-07-27T07:54:13.169Z,26.40
2018-07-27T07:56:42.016Z,26.40
2018-07-27T07:59:10.862Z,26.50
2018-07-27T08:01:39.694Z,26.60
2018-07-27T08:04:08.552Z,26.60
2018-07-27T08:06:37.405Z,26.70
2018-07-27T08:09:06.978Z,26.70
2018-07-27T08:11:35.819Z,26.90
2018-07-27T08:14:04.667Z,26.90
2018-07-27T08:16:33.511Z,26.90
2018-07-27T08:19:02.344Z,27.00
2018-07-27T08:21:31.190Z,27.00
2018-07-27T08:24:00.035Z,27.10
2018-07-27T08:26:32.328Z,27.20
2018-07-27T08:29:01.174Z,27.30
2018-07-27T08:31:30.016Z,27.30
2018-07-27T08:33:58.858Z,27.40
2018-07-27T08:38:57.908Z,27.60
2018-07-27T08:41:27.467Z,27.70
2018-07-27T08:43:56.304Z,27.70
2018-07-27T08:46:25.140Z,27.80
2018-07-27T08:48:53.982Z,27.90
2018-07-27T08:51:22.823Z,27.90
2018-07-27T08:53:51.671Z,27.90
2018-07-27T08:56:20.570Z,27.90
2018-07-27T08:58:49.350Z,28.00
2018-07-27T09:01:18.179Z,28.10
2018-07-27T09:03:47.034Z,28.10
2018-07-27T09:06:15.878Z,28.20
2018-07-27T09:08:44.733Z,28.30
2018-07-27T09:11:13.703Z,28.30
2018-07-27T09:13:42.466Z,28.30
2018-07-27T09:16:11.300Z,28.40
2018-07-27T09:18:40.138Z,28.50
2018-07-27T09:21:08.986Z,28.60
2018-07-27T09:23:37.822Z,28.70
2018-07-27T09:26:06.658Z,28.80
2018-07-27T09:28:35.494Z,28.90
2018-07-27T09:31:05.078Z,29.00
2018-07-27T09:33:33.922Z,29.10
2018-07-27T09:36:02.768Z,29.20
2018-07-27T09:38:31.623Z,29.20
2018-07-27T09:41:00.464Z,29.30
2018-07-27T09:43:29.322Z,29.50
2018-07-27T09:45:58.159Z,29.50
2018-07-27T09:48:27.011Z,29.40
2018-07-27T09:50:55.882Z,29.60
2018-07-27T09:53:24.721Z,29.70
2018-07-27T09:55:53.570Z,29.80
2018-07-27T09:58:22.401Z,29.90
2018-07-27T10:00:51.252Z,29.90
2018-07-27T10:03:20.098Z,30.00
2018-07-27T10:05:48.955Z,30.00
2018-07-27T10:08:17.784Z,30.20
2018-07-27T10:10:46.631Z,30.20
2018-07-27T10:13:16.205Z,30.20
2018-07-27T10:15:45.045Z,30.30
2018-07-27T10:18:13.886Z,30.30
2018-07-27T10:20:42.729Z,30.40
2018-07-27T10:23:11.581Z,30.30
2018-07-27T10:25:40.422Z,30.50
2018-07-27T10:28:09.258Z,30.50
2018-07-27T10:30:38.109Z,30.50
2018-07-27T10:33:06.950Z,30.70
2018-07-27T10:35:35.793Z,30.80
2018-07-27T10:38:04.634Z,30.90
2018-07-27T10:40:34.293Z,31.10
2018-07-27T10:43:03.179Z,31.30
2018-07-27T10:45:32.024Z,31.40
2018-07-27T10:48:01.604Z,31.40
2018-07-27T10:50:30.440Z,31.30
2018-07-27T10:52:59.284Z,31.60
2018-07-27T10:55:28.136Z,31.70
2018-07-27T10:57:56.973Z,31.80
2018-07-27T11:00:25.806Z,31.80
2018-07-27T11:02:55.962Z,32.00
2018-07-27T11:05:24.799Z,32.00
2018-07-27T11:07:53.631Z,32.00
2018-07-27T11:10:22.466Z,32.10
2018-07-27T11:12:52.050Z,32.20
2018-07-27T11:15:20.943Z,32.40
2018-07-27T11:17:50.468Z,32.40
2018-07-27T11:20:19.310Z,32.40
2018-07-27T11:22:48.166Z,32.60
2018-07-27T11:25:17.013Z,32.70
2018-07-27T11:27:45.862Z,32.70
2018-07-27T11:30:14.697Z,32.80
2018-07-27T11:35:12.959Z,32.70
2018-07-27T11:37:41.817Z,32.80
2018-07-27T11:40:11.413Z,32.90
2018-07-27T11:42:40.993Z,33.10
2018-07-27T11:45:09.832Z,33.10
2018-07-27T11:47:38.662Z,33.00
2018-07-27T11:50:07.515Z,33.00
2018-07-27T11:52:36.367Z,33.20
2018-07-27T11:55:05.203Z,33.30
2018-07-27T11:57:34.049Z,33.50
2018-07-27T12:00:02.905Z,33.50
2018-07-27T12:02:31.745Z,33.50
2018-07-27T12:05:01.321Z,33.60
2018-07-27T12:07:30.154Z,33.60
2018-07-27T12:09:59.002Z,33.60
2018-07-27T12:12:27.838Z,33.80
2018-07-27T12:14:56.760Z,33.80
2018-07-27T12:17:25.534Z,33.90
2018-07-27T12:19:54.375Z,33.90
2018-07-27T12:22:23.214Z,34.00
2018-07-27T12:24:52.054Z,34.00
2018-07-27T12:27:20.886Z,34.20
2018-07-27T12:29:49.736Z,34.40
2018-07-27T12:32:18.600Z,34.20
2018-07-27T12:34:47.430Z,34.30
2018-07-27T12:37:16.293Z,34.30
2018-07-27T12:39:45.134Z,34.50
2018-07-27T12:42:13.978Z,34.60
2018-07-27T12:44:42.804Z,34.70
2018-07-27T12:47:12.384Z,34.60
2018-07-27T12:49:41.226Z,34.20
2018-07-27T12:52:10.079Z,34.60
2018-07-27T12:54:38.921Z,34.60
2018-07-27T12:57:07.761Z,34.60
2018-07-27T12:59:36.598Z,34.80
2018-07-27T13:02:05.440Z,34.70
2018-07-27T13:04:35.015Z,34.90
2018-07-27T13:07:03.845Z,35.20
2018-07-27T13:09:32.693Z,35.30
2018-07-27T13:12:01.538Z,35.50
2018-07-27T13:14:30.386Z,35.60
2018-07-27T13:16:59.230Z,35.50
2018-07-27T13:19:28.072Z,35.50
2018-07-27T13:21:57.766Z,35.40
2018-07-27T13:26:55.348Z,35.30
2018-07-27T13:29:24.189Z,35.40
2018-07-27T13:31:53.033Z,35.50
2018-07-27T13:34:21.872Z,35.70
2018-07-27T13:36:50.700Z,36.10
2018-07-27T13:39:19.525Z,35.80
2018-07-27T13:41:49.111Z,35.90
2018-07-27T13:44:17.932Z,35.80
2018-07-27T13:46:46.774Z,35.80
2018-07-27T13:49:15.653Z,35.70
2018-07-27T13:51:44.449Z,35.70
2018-07-27T13:54:13.286Z,35.80
2018-07-27T13:56:42.114Z,35.70
2018-07-27T13:59:10.957Z,36.20
2018-07-27T14:01:39.814Z,36.50
2018-07-27T14:04:08.657Z,36.60
2018-07-27T14:06:37.485Z,36.60
2018-07-27T14:09:06.349Z,36.20
2018-07-27T14:11:35.191Z,36.40
2018-07-27T14:14:04.031Z,36.50
2018-07-27T14:16:32.870Z,36.50
2018-07-27T14:19:01.707Z,36.20
2018-07-27T14:21:30.535Z,36.30
2018-07-27T14:23:59.387Z,36.60
2018-07-27T14:26:28.220Z,36.70
2018-07-27T14:28:57.057Z,36.50
2018-07-27T14:31:25.901Z,36.50
2018-07-27T14:33:55.476Z,36.90
2018-07-27T14:36:24.329Z,37.10
2018-07-27T14:38:53.204Z,37.00
2018-07-27T14:41:22.782Z,37.00
2018-07-27T14:43:51.625Z,37.10
2018-07-27T14:46:20.459Z,37.00
2018-07-27T14:48:50.051Z,37.10
2018-07-27T14:51:18.882Z,37.30
2018-07-27T14:53:48.470Z,37.10
2018-07-27T14:56:18.050Z,37.00
2018-07-27T14:58:46.943Z,37.20
2018-07-27T15:01:15.759Z,37.40
2018-07-27T15:03:44.572Z,37.40
2018-07-27T15:06:13.427Z,37.50
2018-07-27T15:08:42.328Z,37.60
2018-07-27T15:11:11.182Z,37.70
2018-07-27T15:13:40.076Z,37.50
2018-07-27T15:16:08.885Z,37.60
2018-07-27T15:18:37.684Z,37.70
2018-07-27T15:21:06.535Z,37.80
2018-07-27T15:23:35.365Z,38.10
2018-07-27T15:26:04.198Z,38.00
2018-07-27T15:28:33.038Z,37.50
2018-07-27T15:31:01.892Z,37.50
2018-07-27T15:33:30.730Z,37.80
2018-07-27T15:35:59.570Z,37.80
2018-07-27T15:38:28.404Z,37.70
2018-07-27T15:40:57.253Z,37.80
2018-07-27T15:43:26.080Z,37.90
2018-07-27T15:45:54.984Z,37.60
2018-07-27T15:48:24.607Z,37.60
2018-07-27T15:50:54.083Z,37.50
2018-07-27T15:53:22.921Z,37.40
2018-07-27T15:55:51.767Z,37.30
2018-07-27T15:58:20.598Z,37.40
2018-07-27T16:00:49.460Z,37.50
2018-07-27T16:03:19.032Z,37.70
2018-07-27T16:05:47.868Z,37.60
2018-07-27T16:08:17.449Z,37.60
2018-07-27T16:10:46.292Z,37.80
2018-07-27T16:13:15.126Z,37.90
2018-07-27T16:15:43.968Z,37.80
2018-07-27T16:18:13.121Z,37.60
2018-07-27T16:20:44.802Z,37.50
2018-07-27T16:23:13.659Z,37.40
2018-07-27T16:25:42.493Z,37.20
2018-07-27T16:28:11.331Z,37.10
2018-07-27T16:30:40.172Z,37.30
2018-07-27T16:33:09.006Z,37.30
2018-07-27T16:35:37.836Z,37.30
2018-07-27T16:38:07.457Z,37.40
2018-07-27T16:40:36.306Z,37.40
2018-07-27T16:43:05.134Z,37.40
2018-07-27T16:45:33.977Z,37.30
2018-07-27T16:48:02.818Z,37.10
2018-07-27T16:50:31.666Z,36.90
2018-07-27T16:53:00.533Z,36.80
2018-07-27T16:55:29.356Z,36.70
2018-07-27T16:57:58.194Z,36.60
2018-07-27T17:00:27.033Z,36.70
2018-07-27T17:02:55.881Z,36.80
2018-07-27T17:05:24.724Z,36.80
2018-07-27T17:07:53.558Z,36.60
2018-07-27T17:10:22.398Z,36.50
2018-07-27T17:12:51.967Z,36.50
2018-07-27T17:15:20.805Z,36.50
2018-07-27T17:17:49.637Z,36.30
2018-07-27T17:20:18.468Z,36.30
2018-07-27T17:22:48.043Z,36.20
2018-07-27T17:25:17.041Z,36.20
2018-07-27T17:27:46.455Z,35.90
2018-07-27T17:30:15.290Z,35.80
2018-07-27T17:32:44.140Z,35.80
2018-07-27T17:35:12.985Z,35.70
2018-07-27T17:37:41.837Z,35.50
2018-07-27T17:40:10.683Z,35.30
2018-07-27T17:42:39.515Z,35.20
2018-07-27T17:45:09.151Z,35.00
2018-07-27T17:47:38.829Z,34.80
2018-07-27T17:50:07.535Z,34.60
2018-07-27T17:52:36.373Z,34.60
2018-07-27T17:55:05.215Z,34.50
2018-07-27T17:57:34.070Z,34.40
2018-07-27T18:00:03.775Z,34.30
2018-07-27T18:02:32.622Z,34.40
2018-07-27T18:05:01.463Z,34.20
2018-07-27T18:07:30.420Z,34.10
2018-07-27T18:09:59.140Z,34.00
2018-07-27T18:12:27.983Z,34.00
2018-07-27T18:14:56.827Z,33.90
2018-07-27T18:17:26.406Z,33.90
2018-07-27T18:19:55.991Z,33.80
2018-07-27T18:22:24.817Z,33.60
2018-07-27T18:24:53.651Z,33.50
2018-07-27T18:27:22.490Z,33.30
2018-07-27T18:29:51.341Z,33.20
2018-07-27T18:32:20.200Z,33.30
2018-07-27T18:34:49.749Z,33.20
2018-07-27T18:37:18.582Z,33.20
2018-07-27T18:39:48.160Z,33.00
2018-07-27T18:42:17.001Z,32.90
2018-07-27T18:44:45.843Z,32.80
2018-07-27T18:47:14.666Z,32.70
2018-07-27T18:49:44.256Z,32.40
2018-07-27T18:52:13.102Z,32.40
2018-07-27T18:54:41.943Z,32.40
2018-07-27T18:57:10.789Z,32.30
2018-07-27T18:59:39.631Z,32.40
2018-07-27T19:02:09.222Z,32.30
2018-07-27T19:04:38.059Z,32.40
2018-07-27T19:07:06.946Z,32.30
2018-07-27T19:09:35.787Z,32.10
2018-07-27T19:12:04.619Z,32.00
2018-07-27T19:14:33.486Z,32.00
2018-07-27T19:17:02.315Z,31.90
2018-07-27T19:19:31.147Z,31.80
2018-07-27T19:21:59.990Z,31.70
2018-07-27T19:24:28.827Z,31.60
2018-07-27T19:26:57.673Z,31.60
2018-07-27T19:29:26.512Z,31.50
2018-07-27T19:31:55.347Z,31.50
2018-07-27T19:34:24.188Z,31.60
2018-07-27T19:36:53.045Z,31.50
2018-07-27T19:39:21.876Z,31.50
2018-07-27T19:41:50.712Z,31.40
2018-07-27T19:44:19.612Z,31.20
2018-07-27T19:46:48.418Z,31.20
2018-07-27T19:49:17.254Z,31.10
2018-07-27T19:51:46.127Z,31.00
2018-07-27T19:54:15.213Z,31.00
2018-07-27T19:56:43.801Z,31.10
2018-07-27T19:59:12.632Z,31.00
2018-07-27T20:01:41.478Z,31.00
2018-07-27T20:04:10.317Z,30.80
2018-07-27T20:06:39.156Z,30.70
2018-07-27T20:09:08.725Z,30.60
2018-07-27T20:11:37.571Z,30.60
2018-07-27T20:14:07.144Z,30.40
2018-07-27T20:16:35.981Z,30.30
2018-07-27T20:19:05.589Z,30.20
2018-07-27T20:21:35.243Z,30.10
2018-07-27T20:24:04.750Z,30.00
2018-07-27T20:26:33.603Z,30.00
2018-07-27T20:29:03.181Z,29.90
2018-07-27T20:31:32.019Z,29.90
2018-07-27T20:34:00.922Z,29.90
2018-07-27T20:36:29.696Z,29.90
2018-07-27T20:38:58.549Z,29.90
2018-07-27T20:41:27.387Z,29.70
2018-07-27T20:43:56.296Z,29.70
2018-07-27T20:46:25.820Z,29.70
2018-07-27T20:48:54.651Z,29.70
2018-07-27T20:51:23.516Z,29.60
2018-07-27T20:53:52.328Z,29.50
2018-07-27T20:56:21.180Z,29.50
2018-07-27T20:58:50.025Z,29.40
2018-07-27T21:01:18.869Z,29.40
2018-07-27T21:03:47.712Z,29.40
2018-07-27T21:06:16.550Z,29.30
2018-07-27T21:08:46.121Z,29.20
2018-07-27T21:11:14.956Z,29.20
2018-07-27T21:13:44.560Z,29.20
2018-07-27T21:16:13.409Z,29.10
2018-07-27T21:18:42.241Z,29.00
2018-07-27T21:21:11.078Z,29.00
2018-07-27T21:23:39.910Z,28.90
2018-07-27T21:26:09.485Z,28.90
2018-07-27T21:28:38.336Z,28.90
2018-07-27T21:31:07.195Z,28.80
2018-07-27T21:33:36.008Z,28.90
2018-07-27T21:36:04.850Z,28.80
2018-07-27T21:38:33.679Z,28.70
2018-07-27T21:41:02.583Z,28.70
2018-07-27T21:43:31.354Z,28.60
2018-07-27T21:46:00.206Z,28.60
2018-07-27T21:48:29.027Z,28.50
2018-07-27T21:50:57.854Z,28.50
2018-07-27T21:53:26.683Z,28.50
2018-07-27T21:55:55.521Z,28.40
2018-07-27T21:58:24.361Z,28.40
2018-07-27T22:00:53.196Z,28.40
2018-07-27T22:03:22.038Z,28.30
2018-07-27T22:08:20.306Z,28.20
2018-07-27T22:10:49.143Z,28.20
2018-07-27T22:13:18.020Z,28.20
2018-07-27T22:15:46.813Z,28.20
2018-07-27T22:18:16.417Z,28.10
2018-07-27T22:20:45.255Z,28.10
2018-07-27T22:23:14.101Z,28.10
2018-07-27T22:25:42.929Z,28.00
2018-07-27T22:28:11.779Z,28.00
2018-07-27T22:30:41.358Z,28.00
2018-07-27T22:33:10.193Z,28.00
2018-07-27T22:35:39.045Z,28.00
2018-07-27T22:38:07.880Z,27.90
2018-07-27T22:40:36.718Z,27.90
2018-07-27T22:43:05.615Z,27.90
2018-07-27T22:45:34.480Z,27.90
2018-07-27T22:48:03.318Z,27.90
2018-07-27T22:50:32.898Z,27.90
2018-07-27T22:53:01.724Z,27.90
2018-07-27T22:55:30.578Z,27.90
2018-07-27T22:57:59.405Z,27.80
2018-07-27T23:00:28.233Z,27.90
2018-07-27T23:02:57.074Z,27.90
2018-07-27T23:05:25.912Z,27.80
2018-07-27T23:07:54.750Z,27.80
2018-07-27T23:10:23.605Z,27.90
2018-07-27T23:12:52.431Z,27.80
2018-07-27T23:15:21.247Z,27.80
2018-07-27T23:17:50.088Z,27.80
2018-07-27T23:20:19.664Z,27.70
2018-07-27T23:22:48.497Z,27.80
2018-07-27T23:25:18.070Z,27.80
2018-07-27T23:27:46.900Z,27.80
2018-07-27T23:30:15.729Z,27.70
2018-07-27T23:32:44.564Z,27.70
2018-07-27T23:35:14.143Z,27.50
2018-07-27T23:37:42.986Z,27.50
2018-07-27T23:40:11.833Z,27.30
2018-07-27T23:42:40.664Z,27.20
2018-07-27T23:45:09.733Z,27.10
2018-07-27T23:47:38.332Z,27.20
2018-07-27T23:50:07.168Z,27.10
2018-07-27T23:52:36.006Z,27.20
2018-07-27T23:55:04.840Z,26.90
2018-07-27T23:57:33.675Z,27.00
